.
WxDataArchive / Data Records for 2008-06-22
2008-06-21 June 2008 2008-06-23

Data Records for Sunday, 22 June 2008

Time	Temp	Chill	HIndex	Humid	Dewpt	 Wind 	HiWind	WindDir	Rain 	Barom 
-----	----	-----	------	-----	-----	------	------	-------	-----	----- 
00:00	59.9	59.9	59.9	91	57.3	0	0	---	0.00	29.875 
00:05	59.8	59.8	59.8	92	57.5	0	0	---	0.00	29.883 
00:10	59.6	59.6	59.6	92	57.3	0	0	---	0.00	29.881 
00:15	59.5	59.5	59.5	92	57.2	0	0	---	0.00	29.880 
00:20	59.2	59.2	59.2	92	56.9	0	0	---	0.00	29.883 
00:25	59.0	59.0	59.0	92	56.7	0	0	---	0.00	29.883 
00:30	58.9	58.9	58.9	92	56.6	0	0	---	0.00	29.879 
00:35	58.7	58.7	58.7	92	56.4	0	0	---	0.00	29.877 
00:40	58.7	58.7	58.7	92	56.4	0	0	---	0.00	29.878 
00:45	58.6	58.6	58.6	93	56.6	0	0	---	0.00	29.875 
00:50	58.4	58.4	58.4	93	56.4	0	0	---	0.00	29.875 
00:55	58.6	58.6	58.6	93	56.6	0	0	---	0.00	29.875 
01:00	58.6	58.6	58.6	93	56.6	0	0	---	0.00	29.874 
01:05	58.6	58.6	58.6	93	56.6	0	0	---	0.00	29.875 
01:10	58.4	58.4	58.4	93	56.4	0	0	---	0.00	29.875 
01:15	58.4	58.4	58.4	93	56.4	0	0	---	0.00	29.874 
01:20	58.4	58.4	58.4	93	56.4	0	0	---	0.00	29.873 
01:25	58.3	58.3	58.3	93	56.3	0	0	---	0.00	29.874 
01:30	58.3	58.3	58.3	93	56.3	0	1	292	0.00	29.874 
01:35	58.3	58.3	58.3	92	56.0	0	1	292	0.00	29.874 
01:40	58.4	58.4	58.4	92	56.1	0	1	292	0.00	29.875 
01:45	58.4	58.4	58.4	90	55.5	0	0	---	0.00	29.869 
01:50	58.6	58.6	58.6	89	55.4	0	0	---	0.00	29.870 
01:55	58.7	58.7	58.7	88	55.2	0	0	---	0.00	29.872 
02:00	58.9	58.9	58.9	86	54.7	0	0	---	0.00	29.873 
02:05	58.9	58.9	58.9	85	54.4	0	0	---	0.00	29.869 
02:10	58.6	58.6	58.6	85	54.1	0	0	---	0.00	29.872 
02:15	58.6	58.6	58.6	85	54.1	0	0	---	0.00	29.866 
02:20	58.4	58.4	58.4	85	53.9	0	0	---	0.00	29.865 
02:25	58.1	58.1	58.1	86	53.9	0	0	---	0.00	29.869 
02:30	58.0	58.0	58.0	86	53.8	0	0	---	0.00	29.866 
02:35	57.8	57.8	57.8	86	53.6	0	0	---	0.00	29.867 
02:40	57.5	57.5	57.5	87	53.7	0	0	---	0.00	29.868 
02:45	57.3	57.3	57.3	87	53.5	0	0	---	0.00	29.873 
02:50	57.2	57.2	57.2	88	53.7	0	0	---	0.00	29.870 
02:55	57.0	57.0	57.0	88	53.5	0	0	---	0.00	29.868 
03:00	57.0	57.0	57.0	89	53.8	0	0	---	0.00	29.871 
03:05	56.9	56.9	56.9	90	54.0	0	0	---	0.00	29.863 
03:10	56.9	56.9	56.9	90	54.0	0	0	---	0.00	29.860 
03:15	56.7	56.7	56.7	90	53.8	0	0	---	0.00	29.857 
03:20	56.6	56.6	56.6	90	53.7	0	0	---	0.00	29.858 
03:25	56.5	56.5	56.5	90	53.6	0	0	---	0.00	29.857 
03:30	56.3	56.3	56.3	91	53.7	0	0	---	0.00	29.856 
03:35	56.2	56.2	56.2	91	53.6	0	0	---	0.00	29.856 
03:40	56.0	56.0	56.0	91	53.4	0	0	---	0.00	29.855 
03:45	55.9	55.9	55.9	91	53.3	0	0	---	0.00	29.855 
03:50	55.7	55.7	55.7	91	53.1	0	0	---	0.00	29.854 
03:55	55.6	55.6	55.6	92	53.3	0	0	---	0.00	29.854 
04:00	55.4	55.4	55.4	92	53.1	0	0	---	0.00	29.855 
04:05	55.4	55.4	55.4	92	53.1	0	0	---	0.00	29.851 
04:10	55.3	55.3	55.3	92	53.0	0	0	---	0.00	29.853 
04:15	55.3	55.3	55.3	92	53.0	0	0	---	0.00	29.853 
04:20	55.3	55.3	55.3	93	53.3	0	0	---	0.00	29.853 
04:25	55.1	55.1	55.1	93	53.1	0	0	---	0.00	29.854 
04:30	55.0	55.0	55.0	93	53.0	0	0	---	0.00	29.854 
04:35	54.8	54.8	54.8	93	52.8	0	0	---	0.00	29.856 
04:40	54.7	54.7	54.7	93	52.7	0	0	---	0.00	29.856 
04:45	54.7	54.7	54.7	93	52.7	0	0	---	0.00	29.855 
04:50	54.5	54.5	54.5	93	52.5	0	0	---	0.00	29.855 
04:55	54.5	54.5	54.5	93	52.5	0	0	---	0.00	29.856 
05:00	54.5	54.5	54.5	93	52.5	0	0	---	0.00	29.859 
05:05	54.4	54.4	54.4	94	52.7	0	0	---	0.00	29.860 
05:10	54.4	54.4	54.4	94	52.7	0	0	---	0.00	29.864 
05:15	54.2	54.2	54.2	94	52.5	0	0	---	0.00	29.865 
05:20	54.2	54.2	54.2	94	52.5	0	0	---	0.00	29.863 
05:25	54.1	54.1	54.1	94	52.4	0	0	---	0.00	29.864 
05:30	54.1	54.1	54.1	94	52.4	0	0	---	0.00	29.863 
05:35	54.1	54.1	54.1	94	52.4	0	0	---	0.00	29.865 
05:40	54.1	54.1	54.1	94	52.4	0	0	---	0.00	29.867 
05:45	54.2	54.2	54.2	95	52.8	0	0	---	0.00	29.865 
05:50	54.4	54.4	54.4	95	53.0	0	0	---	0.00	29.867 
05:55	54.8	54.8	54.8	95	53.4	0	0	---	0.00	29.866 
06:00	55.0	55.0	55.0	95	53.6	0	0	---	0.00	29.865 
06:05	55.3	55.3	55.3	95	53.9	0	0	---	0.00	29.867 
06:10	55.9	55.9	55.9	95	54.5	0	0	---	0.00	29.868 
06:15	56.2	56.2	56.2	95	54.8	0	0	---	0.00	29.868 
06:20	56.6	56.6	56.6	96	55.5	0	0	---	0.00	29.867 
06:25	57.2	57.2	57.2	96	56.1	0	0	---	0.00	29.867 
06:30	57.8	57.8	57.8	96	56.7	0	0	---	0.00	29.867 
06:35	58.6	58.6	58.6	96	57.5	0	0	---	0.00	29.867 
06:40	59.5	59.5	59.5	95	58.1	0	1	248	0.00	29.866 
06:45	60.5	60.5	60.5	94	58.8	0	1	248	0.00	29.866 
06:50	61.6	61.6	61.6	93	59.6	0	1	248	0.00	29.865 
06:55	62.6	62.6	62.6	90	59.6	0	1	248	0.00	29.866 
07:00	63.4	63.4	63.4	86	59.1	0	2	248	0.00	29.866 
07:05	63.9	63.9	63.9	83	58.6	0	1	248	0.00	29.870 
07:10	64.2	64.2	64.2	81	58.2	0	1	248	0.00	29.869 
07:15	64.5	64.5	64.5	81	58.5	0	1	248	0.00	29.870 
07:20	64.7	64.7	64.7	79	58.0	0	1	248	0.00	29.867 
07:25	65.0	65.0	65.0	80	58.7	0	0	---	0.00	29.868 
07:30	65.6	65.6	65.6	78	58.5	0	1	248	0.00	29.866 
07:35	66.1	66.1	66.1	75	57.9	0	1	248	0.00	29.866 
07:40	66.6	66.6	66.6	75	58.4	0	1	248	0.00	29.867 
07:45	66.9	66.9	66.9	74	58.3	0	2	248	0.00	29.865 
07:50	67.4	67.4	67.4	73	58.4	0	1	248	0.00	29.865 
07:55	67.9	67.9	67.9	72	58.5	0	1	248	0.00	29.867 
08:00	68.6	68.6	68.6	72	59.2	0	1	248	0.00	29.868 
08:05	68.9	68.9	68.9	67	57.5	0	2	248	0.00	29.869 
08:10	69.4	69.4	69.4	67	58.0	0	1	248	0.00	29.869 
08:15	69.9	69.9	69.9	68	58.8	0	1	248	0.00	29.866 
08:20	70.6	70.6	70.6	64	57.8	0	1	248	0.00	29.868 
08:25	71.3	71.3	71.3	65	58.9	0	1	248	0.00	29.867 
08:30	71.6	71.6	71.6	61	57.4	0	2	248	0.00	29.864 
08:35	72.0	72.0	72.0	59	56.9	0	1	248	0.00	29.864 
08:40	72.1	72.1	72.1	57	56.0	0	1	248	0.00	29.864 
08:45	72.5	72.5	72.5	60	57.8	0	1	248	0.00	29.863 
08:50	73.0	73.0	73.0	57	56.9	0	1	248	0.00	29.862 
08:55	73.2	73.2	73.2	54	55.5	0	1	248	0.00	29.863 
09:00	73.3	73.3	73.3	54	55.6	0	1	248	0.00	29.863 
09:05	73.7	73.7	73.7	57	57.5	0	1	248	0.00	29.863 
09:10	74.0	74.0	74.0	52	55.2	0	1	248	0.00	29.862 
09:15	74.7	74.7	74.7	54	56.9	0	1	248	0.00	29.863 
09:20	75.8	75.8	78.0	49	55.3	0	2	225	0.00	29.863 
09:25	76.0	76.0	78.0	47	54.3	0	2	225	0.00	29.862 
09:30	76.1	76.1	78.0	45	53.2	1	2	225	0.00	29.862 
09:35	76.3	76.3	78.2	47	54.6	0	1	225	0.00	29.861 
09:40	76.8	76.8	78.1	40	50.6	0	2	225	0.00	29.861 
09:45	76.8	76.8	78.1	40	50.6	0	1	225	0.00	29.861 
09:50	77.0	77.0	78.3	41	51.5	1	3	225	0.00	29.858 
09:55	77.0	77.0	78.2	40	50.8	0	2	225	0.00	29.859 
10:00	77.2	77.2	78.5	45	54.2	0	1	225	0.00	29.858 
10:05	77.4	77.4	78.5	41	51.8	1	2	225	0.00	29.858 
10:10	77.2	77.2	78.6	46	54.8	0	2	315	0.00	29.859 
10:15	77.6	77.6	78.6	41	52.0	1	3	315	0.00	29.858 
10:20	77.7	77.7	78.9	46	55.2	1	3	248	0.00	29.859 
10:25	78.1	78.1	78.8	40	51.8	1	3	248	0.00	29.860 
10:30	78.5	78.5	79.4	46	56.0	0	2	270	0.00	29.861 
10:35	78.6	78.6	79.0	39	51.5	1	3	270	0.00	29.859 
10:40	78.5	78.5	79.0	40	52.1	1	2	270	0.00	29.859 
10:45	78.5	78.5	78.9	38	50.8	0	2	270	0.00	29.861 
10:50	79.0	79.0	79.6	44	55.2	0	2	292	0.00	29.859 
10:55	78.8	78.8	78.8	35	48.8	1	2	292	0.00	29.855 
11:00	79.0	79.0	79.2	38	51.2	1	4	292	0.00	29.852 
11:05	79.0	79.0	79.2	38	51.2	2	3	270	0.00	29.857 
11:10	79.0	79.0	79.1	37	50.5	1	4	248	0.00	29.856 
11:15	78.8	78.8	79.2	40	52.4	1	3	0	0.00	29.850 
11:20	78.6	78.6	78.9	37	50.1	1	3	315	0.00	29.852 
11:25	78.8	78.8	79.0	37	50.3	1	3	315	0.00	29.850 
11:30	78.8	78.8	79.0	38	51.0	1	3	270	0.00	29.850 
11:35	79.4	79.4	79.5	39	52.3	1	4	270	0.00	29.850 
11:40	79.4	79.4	79.5	40	52.9	1	3	270	0.00	29.849 
11:45	79.0	79.0	79.0	36	49.7	0	2	292	0.00	29.849 
11:50	78.1	78.1	78.7	38	50.4	1	3	292	0.00	29.848 
11:55	78.6	78.6	78.9	38	50.8	1	2	292	0.00	29.848 
12:00	78.5	78.5	78.8	37	50.0	1	2	292	0.00	29.848 
12:05	78.3	78.3	78.6	36	49.1	1	2	270	0.00	29.847 
12:10	78.5	78.5	78.8	37	50.0	1	3	270	0.00	29.849 
12:15	78.6	78.6	78.8	36	49.4	1	3	292	0.00	29.845 
12:20	78.6	78.6	79.0	39	51.5	1	4	315	0.00	29.845 
12:25	78.3	78.3	78.7	37	49.9	1	3	292	0.00	29.843 
12:30	78.3	78.3	78.8	39	51.3	0	1	292	0.00	29.841 
12:35	79.0	79.0	79.3	40	52.6	1	3	248	0.00	29.837 
12:40	79.8	79.8	79.6	38	51.9	0	2	225	0.00	29.833 
12:45	80.5	80.5	80.5	42	55.3	1	3	112	0.00	29.831 
12:50	81.1	81.1	80.4	36	51.6	0	1	112	0.00	29.828 
12:55	81.4	81.4	80.4	34	50.3	1	4	270	0.00	29.819 
13:00	80.9	80.9	79.9	32	48.2	1	2	292	0.00	29.815 
13:05	80.3	80.3	79.5	32	47.7	1	2	292	0.00	29.815 
13:10	79.4	79.4	79.0	33	47.8	1	3	292	0.00	29.816 
13:15	78.1	78.1	78.5	35	48.2	1	3	270	0.00	29.819 
13:20	76.5	76.5	78.0	39	49.7	3	9	270	0.00	29.843 
13:25	71.3	71.3	71.3	51	52.2	4	9	315	0.00	29.851 
13:30	66.8	66.8	66.8	65	54.6	2	11	338	0.03	29.856 
13:35	64.3	64.3	64.3	73	55.5	1	3	0	0.02	29.837 
13:40	63.2	63.2	63.2	79	56.6	0	1	0	0.00	29.840 
13:45	62.7	62.7	62.7	82	57.1	0	2	0	0.00	29.836 
13:50	62.7	62.7	62.7	83	57.5	0	1	68	0.00	29.834 
13:55	63.1	63.1	63.1	84	58.2	0	0	---	0.00	29.830 
14:00	63.7	63.7	63.7	86	59.4	0	0	---	0.00	29.828 
14:05	64.2	64.2	64.2	84	59.3	0	0	---	0.00	29.829 
14:10	64.5	64.5	64.5	84	59.6	0	1	68	0.00	29.830 
14:15	64.7	64.7	64.7	81	58.7	0	1	68	0.00	29.831 
14:20	64.8	64.8	64.8	78	57.8	1	5	45	0.00	29.853 
14:25	64.0	64.0	64.0	74	55.5	3	9	292	0.00	29.860 
14:30	63.2	63.2	63.2	73	54.4	3	7	315	0.00	29.859 
14:35	63.2	63.2	63.2	73	54.4	3	10	292	0.00	29.854 
14:40	63.2	63.2	63.2	74	54.8	1	5	248	0.00	29.856 
14:45	63.1	63.1	63.1	73	54.3	0	2	248	0.00	29.856 
14:50	63.1	63.1	63.1	73	54.3	1	4	292	0.00	29.858 
14:55	62.9	62.9	62.9	73	54.1	0	3	292	0.00	29.861 
15:00	62.9	62.9	62.9	74	54.5	0	2	292	0.01	29.873 
15:05	62.7	62.7	62.7	79	56.1	0	1	292	0.00	29.865 
15:10	62.1	62.1	62.1	79	55.5	0	2	292	0.01	29.866 
15:15	61.8	61.8	61.8	80	55.6	0	2	112	0.00	29.856 
15:20	61.6	61.6	61.6	82	56.0	0	2	112	0.00	29.852 
15:25	61.5	61.5	61.5	83	56.3	0	1	112	0.00	29.853 
15:30	61.3	61.3	61.3	84	56.4	0	0	---	0.00	29.858 
15:35	61.3	61.3	61.3	84	56.4	0	1	112	0.00	29.863 
15:40	61.2	61.2	61.2	85	56.6	0	1	112	0.00	29.865 
15:45	61.0	61.0	61.0	85	56.5	0	1	112	0.01	29.869 
15:50	60.9	60.9	60.9	85	56.4	0	0	---	0.01	29.872 
15:55	60.9	60.9	60.9	88	57.3	0	1	112	0.01	29.865 
16:00	61.3	61.3	61.3	88	57.7	0	1	112	0.01	29.859 
16:05	61.5	61.5	61.5	88	57.9	0	1	112	0.01	29.860 
16:10	61.2	61.2	61.2	88	57.6	0	1	112	0.00	29.860 
16:15	61.0	61.0	61.0	89	57.7	0	0	---	0.00	29.863 
16:20	61.2	61.2	61.2	91	58.5	0	1	112	0.00	29.861 
16:25	61.5	61.5	61.5	91	58.8	0	1	112	0.00	29.860 
16:30	61.6	61.6	61.6	90	58.6	0	2	112	0.01	29.848 
16:35	61.5	61.5	61.5	90	58.5	0	2	135	0.00	29.836 
16:40	61.2	61.2	61.2	89	57.9	1	3	90	0.00	29.829 
16:45	60.7	60.7	60.7	86	56.5	2	5	90	0.00	29.812 
16:50	60.7	60.7	60.7	85	56.2	1	3	90	0.00	29.813 
16:55	60.7	60.7	60.7	85	56.2	1	2	90	0.00	29.801 
17:00	60.9	60.9	60.9	83	55.7	1	3	90	0.00	29.795 
17:05	60.7	60.7	60.7	82	55.2	1	2	90	0.00	29.800 
17:10	60.9	60.9	60.9	84	56.0	2	5	315	0.00	29.815 
17:15	61.0	61.0	61.0	82	55.5	1	3	270	0.00	29.818 
17:20	61.2	61.2	61.2	84	56.3	0	2	270	0.00	29.817 
17:25	61.2	61.2	61.2	85	56.6	0	1	270	0.00	29.817 
17:30	61.2	61.2	61.2	86	57.0	0	0	---	0.00	29.815 
17:35	61.0	61.0	61.0	87	57.1	0	0	---	0.00	29.814 
17:40	61.0	61.0	61.0	87	57.1	0	0	---	0.00	29.811 
17:45	61.2	61.2	61.2	87	57.3	0	0	---	0.00	29.807 
17:50	61.2	61.2	61.2	88	57.6	0	0	---	0.00	29.813 
17:55	61.3	61.3	61.3	88	57.7	0	0	---	0.00	29.816 
18:00	61.5	61.5	61.5	88	57.9	0	0	---	0.00	29.817 
18:05	61.6	61.6	61.6	88	58.0	0	0	---	0.00	29.812 
18:10	61.8	61.8	61.8	87	57.9	0	0	---	0.00	29.816 
18:15	61.8	61.8	61.8	88	58.2	0	0	---	0.00	29.822 
18:20	62.0	62.0	62.0	87	58.1	0	0	---	0.00	29.824 
18:25	62.1	62.1	62.1	87	58.2	0	0	---	0.00	29.826 
18:30	62.4	62.4	62.4	86	58.2	0	1	270	0.00	29.827 
18:35	62.7	62.7	62.7	84	57.8	0	1	270	0.00	29.824 
18:40	62.9	62.9	62.9	84	58.0	0	1	270	0.00	29.824 
18:45	63.2	63.2	63.2	84	58.3	0	0	---	0.00	29.823 
18:50	63.4	63.4	63.4	84	58.5	0	0	---	0.00	29.821 
18:55	63.5	63.5	63.5	84	58.6	0	0	---	0.00	29.820 
19:00	63.7	63.7	63.7	84	58.8	0	0	---	0.00	29.823 
19:05	63.9	63.9	63.9	84	59.0	0	0	---	0.00	29.819 
19:10	63.9	63.9	63.9	84	59.0	0	0	---	0.00	29.819 
19:15	63.7	63.7	63.7	84	58.8	0	0	---	0.00	29.820 
19:20	63.5	63.5	63.5	84	58.6	0	0	---	0.00	29.821 
19:25	63.4	63.4	63.4	84	58.5	0	0	---	0.00	29.824 
19:30	63.2	63.2	63.2	85	58.6	0	0	---	0.00	29.823 
19:35	63.1	63.1	63.1	85	58.5	0	0	---	0.00	29.822 
19:40	62.9	62.9	62.9	86	58.6	0	0	---	0.00	29.822 
19:45	62.7	62.7	62.7	87	58.8	0	0	---	0.00	29.822 
19:50	62.6	62.6	62.6	87	58.7	0	0	---	0.00	29.820 
19:55	62.3	62.3	62.3	87	58.4	0	0	---	0.00	29.820 
20:00	62.0	62.0	62.0	87	58.1	0	1	248	0.00	29.817 
20:05	61.6	61.6	61.6	86	57.4	0	0	---	0.00	29.816 
20:10	61.5	61.5	61.5	86	57.3	0	0	---	0.00	29.814 
20:15	61.2	61.2	61.2	85	56.6	0	0	---	0.00	29.813 
20:20	60.9	60.9	60.9	85	56.4	0	0	---	0.00	29.812 
20:25	60.7	60.7	60.7	85	56.2	0	0	---	0.00	29.813 
20:30	60.4	60.4	60.4	84	55.5	0	0	---	0.00	29.817 
20:35	60.1	60.1	60.1	86	55.9	0	0	---	0.00	29.816 
20:40	59.8	59.8	59.8	86	55.6	0	0	---	0.00	29.819 
20:45	59.6	59.6	59.6	87	55.7	0	0	---	0.00	29.819 
20:50	59.3	59.3	59.3	87	55.4	0	0	---	0.00	29.819 
20:55	59.2	59.2	59.2	88	55.6	0	0	---	0.00	29.821 
21:00	58.9	58.9	58.9	88	55.3	0	0	---	0.00	29.825 
21:05	58.7	58.7	58.7	89	55.5	0	0	---	0.00	29.819 
21:10	58.7	58.7	58.7	90	55.8	0	0	---	0.00	29.818 
21:15	58.6	58.6	58.6	90	55.7	0	0	---	0.00	29.828 
21:20	58.6	58.6	58.6	90	55.7	0	0	---	0.00	29.833 
21:25	58.6	58.6	58.6	91	56.0	0	0	---	0.00	29.838 
21:30	59.0	59.0	59.0	91	56.4	1	3	270	0.00	29.873 
21:35	59.9	59.9	59.9	89	56.6	2	6	315	0.00	29.870 
21:40	60.9	60.9	60.9	86	56.7	2	5	292	0.00	29.871 
21:45	61.3	61.3	61.3	81	55.4	1	4	270	0.00	29.874 
21:50	61.2	61.2	61.2	77	53.9	2	7	315	0.00	29.878 
21:55	59.6	59.6	59.6	81	53.8	3	9	315	0.02	29.881 
22:00	58.7	58.7	58.7	84	53.9	3	6	315	0.01	29.884 
22:05	58.1	58.1	58.1	87	54.2	2	6	270	0.02	29.890 
22:10	57.8	57.8	57.8	88	54.3	2	5	270	0.01	29.893 
22:15	57.5	57.5	57.5	89	54.3	2	6	270	0.01	29.894 
22:20	57.3	57.3	57.3	90	54.4	2	5	315	0.02	29.891 
22:25	57.0	57.0	57.0	91	54.4	2	5	270	0.01	29.882 
22:30	57.0	57.0	57.0	91	54.4	2	5	270	0.00	29.881 
22:35	57.0	57.0	57.0	91	54.4	1	3	270	0.01	29.884 
22:40	57.0	57.0	57.0	92	54.7	0	1	270	0.01	29.880 
22:45	56.9	56.9	56.9	92	54.6	0	1	270	0.01	29.876 
22:50	56.9	56.9	56.9	92	54.6	0	1	270	0.01	29.869 
22:55	56.7	56.7	56.7	92	54.4	0	1	270	0.02	29.864 
23:00	56.7	56.7	56.7	92	54.4	0	1	270	0.01	29.854 
23:05	56.6	56.6	56.6	92	54.3	0	1	270	0.01	29.848 
23:10	56.7	56.7	56.7	93	54.7	0	2	270	0.01	29.840 
23:15	56.7	56.7	56.7	93	54.7	0	0	---	0.00	29.834 
23:20	56.7	56.7	56.7	93	54.7	0	1	270	0.00	29.834 
23:25	56.7	56.7	56.7	93	54.7	0	1	270	0.00	29.833 
23:30	56.7	56.7	56.7	93	54.7	0	0	---	0.00	29.832 
23:35	56.7	56.7	56.7	93	54.7	0	0	---	0.00	29.832 
23:40	56.7	56.7	56.7	94	55.0	0	0	---	0.00	29.833 
23:45	56.7	56.7	56.7	94	55.0	0	2	270	0.00	29.835 
23:50	56.7	56.7	56.7	94	55.0	0	1	270	0.00	29.834 
23:55	56.7	56.7	56.7	94	55.0	0	1	270	0.00	29.832 

CoCoRaHS
IN-AL-39
A2 Web Hosting
Creative Commons License
GoDaddy
Look for:

loaded 2017-10-18 21:57:14 • last modified 2010-11-18 10:43:29
Privacy PolicyDisclaimer
• wx.awcolley.com is powered by PmWiki v.2002016 •
• all content (unless otherwise noted) © 2017 A W Colley